CYPD

Port Hawkesbury Airport

Port Hawkesbury, Nova Scotia, Canada
METAR CYPD 250000Z AUTO 22006KT 170V240 9SM CLR 11/M02 A3020 RMK SLP231
Observed Flight Rules
Apr-25 @ 00:00 UTC (30 minutes ago) Visual Flight Rules
Wind Visibility Clouds
220° at 6 knots 9 miles
  • Clear skies
Temperatures Readings
Current 11°C / 52°F
Dewpoint -2°C / 28°F
Humidity 41%
Altimeter 30.2" Hg
Pressure 1023.1 hPa
Elevation 114
METAR CYPD 250000Z AUTO 22006KT 170V240 9SM CLR 11/M02 A3020 RMK SLP231
Observed Flight Rules
Apr-25 @ 00:00 UTC
(30 minutes ago)
VFR
Wind Visibility
220° at 6 knots 9 miles
Clouds
  • Clear skies
Temperature Dewpoint
11°C / 52°F -2°C / 28°F
Humidity Altimeter Pressure
41% 30.2" Hg 1023.1 hPa